Time;durP1;ratioP1;P1;durP2;ratioP2;P2;SDS_P1;SDS_P2;PMS_P1;PMS_P2;Temp;Humidity;BMP_temperature;BMP_pressure;BME280_temperature;BME280_humidity;BME280_pressure;Samples;Min_cycle;Max_cycle;Signal;HPM_P1;HPM_P2
2024/02/28 00:00:01;;;;;;;6.18;5.57;;;10.80;66.70;;;;;;5024502;28;20114;-79
2024/02/28 00:02:45;;;;;;;6.45;5.63;;;10.80;66.70;;;;;;5034713;28;20416;-79
2024/02/28 00:05:29;;;;;;;6.95;6.25;;;10.70;66.50;;;;;;5041535;28;20050;-80
2024/02/28 00:08:14;;;;;;;6.68;6.07;;;10.70;66.60;;;;;;5041279;28;20052;-78
2024/02/28 00:10:58;;;;;;;6.50;5.30;;;10.80;66.80;;;;;;5038026;28;20728;-78
2024/02/28 00:13:43;;;;;;;5.72;5.22;;;10.70;66.70;;;;;;5038109;28;20036;-79
2024/02/28 00:16:27;;;;;;;5.82;4.93;;;10.70;66.70;;;;;;5037697;28;20090;-78
2024/02/28 00:19:13;;;;;;;6.10;5.45;;;10.80;66.90;;;;;;5035666;28;20186;-79
2024/02/28 00:21:59;;;;;;;6.13;5.53;;;10.70;66.80;;;;;;5037436;28;20680;-79
2024/02/28 00:24:44;;;;;;;5.63;5.13;;;10.70;66.80;;;;;;5036237;28;20059;-78
2024/02/28 00:27:28;;;;;;;5.38;4.85;;;10.70;66.80;;;;;;5035037;28;20090;-78
2024/02/28 00:30:14;;;;;;;5.20;4.70;;;10.70;66.90;;;;;;5032202;28;20503;-77
2024/02/28 00:33:00;;;;;;;5.47;4.97;;;10.70;66.90;;;;;;5033051;28;20068;-77
2024/02/28 00:35:44;;;;;;;5.00;4.43;;;10.70;66.90;;;;;;5037429;28;20441;-79
2024/02/28 00:38:30;;;;;;;5.55;4.53;;;10.70;66.90;;;;;;5037248;28;20164;-78
2024/02/28 00:41:14;;;;;;;5.35;4.45;;;10.70;66.90;;;;;;5041205;28;20078;-78
2024/02/28 00:43:58;;;;;;;5.03;4.45;;;10.80;67.20;;;;;;5044966;28;20126;-78
2024/02/28 00:46:43;;;;;;;5.05;4.28;;;10.70;67.00;;;;;;5038291;28;20080;-78
2024/02/28 00:49:27;;;;;;;6.20;4.63;;;10.70;67.00;;;;;;5033392;28;20384;-77
2024/02/28 00:52:11;;;;;;;5.20;4.68;;;10.70;67.00;;;;;;5036170;28;20043;-78
2024/02/28 00:54:56;;;;;;;5.35;4.15;;;10.70;67.10;;;;;;5031364;28;20032;-79
2024/02/28 00:57:41;;;;;;;6.32;5.45;;;10.70;67.10;;;;;;5035522;28;20048;-78
2024/02/28 01:00:25;;;;;;;5.25;4.65;;;10.70;67.10;;;;;;5032582;28;20210;-79
2024/02/28 01:03:13;;;;;;;4.88;4.38;;;10.70;67.10;;;;;;5036946;28;20063;-79
2024/02/28 01:06:00;;;;;;;5.35;4.85;;;10.70;67.20;;;;;;5036773;28;20121;-79
2024/02/28 01:08:45;;;;;;;5.88;4.88;;;10.70;67.20;;;;;;5034159;28;20075;-79
2024/02/28 01:11:30;;;;;;;6.18;4.70;;;10.70;67.20;;;;;;5040216;28;20131;-79
2024/02/28 01:14:14;;;;;;;6.05;5.10;;;10.70;67.20;;;;;;5037560;28;20048;-78
2024/02/28 01:16:58;;;;;;;7.03;6.00;;;10.60;67.10;;;;;;5032314;28;20160;-78
2024/02/28 01:19:43;;;;;;;5.75;5.13;;;10.60;67.10;;;;;;5031114;28;20091;-78
2024/02/28 01:22:28;;;;;;;6.10;5.50;;;10.60;67.20;;;;;;5030897;28;20386;-78
2024/02/28 01:25:12;;;;;;;5.80;5.13;;;10.60;67.20;;;;;;5029270;28;20036;-78
2024/02/28 01:27:59;;;;;;;5.78;4.82;;;10.60;67.20;;;;;;5036498;28;20125;-80
2024/02/28 01:30:44;;;;;;;7.07;5.63;;;10.60;67.20;;;;;;5036018;28;20108;-79
2024/02/28 01:33:29;;;;;;;6.28;5.55;;;10.70;67.40;;;;;;5031858;28;20063;-79
2024/02/28 01:36:14;;;;;;;6.60;5.20;;;10.70;67.40;;;;;;5037521;28;20139;-79
2024/02/28 01:38:58;;;;;;;7.53;5.88;;;10.60;67.20;;;;;;5036270;28;20071;-78
2024/02/28 01:41:52;;;;;;;6.05;5.45;;;10.70;67.40;;;;;;5036434;28;20663;-78
2024/02/28 01:44:44;;;;;;;6.30;5.30;;;10.70;67.50;;;;;;5037178;28;20043;-78
2024/02/28 01:47:30;;;;;;;7.28;5.65;;;10.70;67.50;;;;;;5036030;28;20515;-78
2024/02/28 01:50:15;;;;;;;7.57;5.93;;;10.70;67.50;;;;;;5033754;28;20515;-78
2024/02/28 01:53:01;;;;;;;6.55;5.43;;;10.70;67.50;;;;;;5036714;28;20146;-78
2024/02/28 01:55:45;;;;;;;5.93;5.32;;;10.60;67.40;;;;;;5039281;28;20059;-78
2024/02/28 01:58:30;;;;;;;6.88;5.88;;;10.60;67.40;;;;;;5036194;28;20043;-79
2024/02/28 02:01:15;;;;;;;6.93;5.60;;;10.60;67.40;;;;;;5034766;28;20059;-78
2024/02/28 02:04:05;;;;;;;8.07;6.43;;;10.60;67.50;;;;;;5036575;28;20084;-78
2024/02/28 02:06:54;;;;;;;7.40;6.15;;;10.70;67.70;;;;;;5034070;28;20049;-78
2024/02/28 02:09:38;;;;;;;5.78;5.20;;;10.60;67.50;;;;;;5031223;28;20463;-78
2024/02/28 02:12:23;;;;;;;7.50;5.97;;;10.60;67.50;;;;;;5039136;28;20144;-79
2024/02/28 02:15:08;;;;;;;7.90;5.90;;;10.60;67.60;;;;;;5039201;28;20115;-78
2024/02/28 02:17:52;;;;;;;6.90;5.63;;;10.60;67.60;;;;;;5035953;28;20035;-78
2024/02/28 02:20:42;;;;;;;7.25;5.85;;;10.60;67.60;;;;;;5034940;28;20123;-78
2024/02/28 02:23:27;;;;;;;8.40;6.60;;;10.60;67.60;;;;;;5034953;28;20590;-78
2024/02/28 02:26:11;;;;;;;7.10;6.25;;;10.70;67.80;;;;;;5029115;28;20059;-78
2024/02/28 02:28:56;;;;;;;10.50;6.88;;;10.60;67.60;;;;;;5038003;28;20138;-78
2024/02/28 02:31:40;;;;;;;9.30;7.07;;;10.60;67.60;;;;;;5033927;28;20036;-78
2024/02/28 02:34:24;;;;;;;10.13;7.25;;;10.60;67.70;;;;;;5038562;28;20575;-78
2024/02/28 02:37:09;;;;;;;8.32;6.85;;;10.60;67.70;;;;;;5040765;28;20032;-78
2024/02/28 02:39:54;;;;;;;9.45;7.50;;;10.60;67.70;;;;;;5038337;28;20040;-80
2024/02/28 02:42:38;;;;;;;9.75;7.32;;;10.60;67.70;;;;;;5036306;28;20052;-80
2024/02/28 02:45:23;;;;;;;11.73;7.97;;;10.60;67.80;;;;;;5039274;28;20242;-78
2024/02/28 02:48:07;;;;;;;13.10;7.80;;;10.60;67.80;;;;;;5038042;28;20566;-78
2024/02/28 02:50:52;;;;;;;10.15;7.20;;;10.60;67.80;;;;;;5026577;28;20095;-79
2024/02/28 02:53:36;;;;;;;13.20;8.57;;;10.60;67.80;;;;;;5039209;28;20182;-78
2024/02/28 02:56:22;;;;;;;9.80;7.65;;;10.60;67.80;;;;;;5039284;28;20044;-78
2024/02/28 02:59:07;;;;;;;12.40;8.13;;;10.60;67.90;;;;;;5038548;28;20554;-78
2024/02/28 03:01:52;;;;;;;11.15;8.82;;;10.60;67.90;;;;;;5019634;28;20411;-78
2024/02/28 03:04:37;;;;;;;12.52;8.68;;;10.60;67.90;;;;;;5040743;28;20530;-78
2024/02/28 03:07:21;;;;;;;11.55;7.72;;;10.60;68.00;;;;;;5044349;28;20072;-78
2024/02/28 03:10:06;;;;;;;12.70;8.55;;;10.60;68.00;;;;;;5040637;28;20047;-79
2024/02/28 03:12:51;;;;;;;9.80;8.23;;;10.70;68.10;;;;;;5045724;28;20220;-79
2024/02/28 03:15:36;;;;;;;14.43;9.15;;;10.60;68.00;;;;;;5039212;28;20116;-80
2024/02/28 03:18:20;;;;;;;12.50;8.02;;;10.60;68.00;;;;;;5039021;28;20063;-79
2024/02/28 03:21:05;;;;;;;10.65;6.95;;;10.60;68.00;;;;;;5038895;28;20048;-79
2024/02/28 03:23:49;;;;;;;11.25;7.53;;;10.60;68.00;;;;;;5042132;28;20044;-79
2024/02/28 03:26:33;;;;;;;10.85;7.65;;;10.60;68.00;;;;;;5035773;28;20032;-79
2024/02/28 03:29:18;;;;;;;11.00;8.50;;;10.60;68.00;;;;;;5043165;28;20055;-79
2024/02/28 03:32:02;;;;;;;10.60;7.30;;;10.60;68.00;;;;;;5042549;28;20044;-79
2024/02/28 03:34:48;;;;;;;11.73;7.70;;;10.60;68.10;;;;;;5039381;28;20044;-79
2024/02/28 03:37:32;;;;;;;10.60;7.60;;;10.60;68.10;;;;;;5035401;28;20621;-80
2024/02/28 03:40:16;;;;;;;10.05;6.80;;;10.60;68.10;;;;;;5043640;28;20118;-80
2024/02/28 03:43:01;;;;;;;10.70;7.72;;;10.60;68.10;;;;;;5040127;28;20527;-79
2024/02/28 03:45:45;;;;;;;11.05;7.57;;;10.60;68.20;;;;;;5043239;28;20051;-79
2024/02/28 03:48:30;;;;;;;10.35;7.32;;;10.60;68.20;;;;;;5036761;28;20414;-79
2024/02/28 03:51:14;;;;;;;9.82;6.82;;;10.60;68.20;;;;;;5036676;28;20228;-79
2024/02/28 03:53:58;;;;;;;8.05;6.68;;;10.60;68.70;;;;;;5045147;28;20540;-79
2024/02/28 03:56:43;;;;;;;9.02;7.60;;;10.60;68.20;;;;;;5043287;28;20813;-79
2024/02/28 03:59:28;;;;;;;11.57;6.75;;;10.60;68.30;;;;;;5041259;28;20451;-79
2024/02/28 04:02:12;;;;;;;10.00;6.40;;;10.60;68.30;;;;;;5047504;28;20396;-79
2024/02/28 04:04:57;;;;;;;11.77;6.60;;;10.60;68.30;;;;;;5036908;28;20282;-79
2024/02/28 04:07:41;;;;;;;8.43;6.53;;;10.60;68.30;;;;;;5044767;28;20515;-79
2024/02/28 04:10:26;;;;;;;8.68;6.88;;;10.50;68.10;;;;;;5024232;28;20400;-79
2024/02/28 04:13:10;;;;;;;9.35;6.05;;;10.60;68.30;;;;;;5043873;28;20103;-79
2024/02/28 04:15:55;;;;;;;9.05;6.80;;;10.60;68.30;;;;;;5025058;28;20087;-79
2024/02/28 04:18:40;;;;;;;9.73;6.13;;;10.60;68.30;;;;;;5040125;28;20040;-79
2024/02/28 04:21:24;;;;;;;9.75;5.75;;;10.60;68.30;;;;;;5037153;28;20083;-79
2024/02/28 04:24:09;;;;;;;7.75;6.05;;;10.60;68.30;;;;;;5043240;28;20110;-79
2024/02/28 04:26:54;;;;;;;9.77;6.75;;;10.60;68.30;;;;;;5039908;28;20467;-79
2024/02/28 04:29:38;;;;;;;9.55;5.38;;;10.60;68.30;;;;;;5039641;28;20059;-78
2024/02/28 04:32:24;;;;;;;8.40;5.80;;;10.60;68.40;;;;;;5040518;28;20056;-79
2024/02/28 04:35:08;;;;;;;11.00;6.00;;;10.60;68.40;;;;;;5039265;28;20083;-79
2024/02/28 04:37:53;;;;;;;9.02;6.15;;;10.60;68.40;;;;;;5039692;28;20036;-79
2024/02/28 04:40:37;;;;;;;8.93;5.50;;;10.50;68.30;;;;;;5033959;28;20066;-81
2024/02/28 04:43:22;;;;;;;9.18;5.72;;;10.50;68.30;;;;;;5041365;28;20044;-80
2024/02/28 04:46:07;;;;;;;7.28;6.07;;;10.50;68.80;;;;;;5040358;28;20117;-79
2024/02/28 04:48:51;;;;;;;8.10;6.05;;;10.50;68.30;;;;;;5036859;28;20055;-80
2024/02/28 04:51:35;;;;;;;6.97;5.38;;;10.50;68.30;;;;;;5029598;28;20102;-79
2024/02/28 04:54:20;;;;;;;12.00;5.88;;;10.50;68.30;;;;;;5042086;28;20225;-80
2024/02/28 04:57:05;;;;;;;7.32;5.40;;;10.50;68.30;;;;;;5034261;28;20417;-79
2024/02/28 04:59:49;;;;;;;8.40;6.20;;;10.50;68.30;;;;;;5033667;28;20075;-78
2024/02/28 05:02:34;;;;;;;11.70;6.00;;;10.50;68.90;;;;;;5026710;28;20412;-79
2024/02/28 05:05:19;;;;;;;8.38;6.15;;;10.50;68.30;;;;;;5030659;28;20052;-78
2024/02/28 05:08:04;;;;;;;8.20;5.50;;;10.50;68.30;;;;;;5040085;28;20047;-78
2024/02/28 05:10:50;;;;;;;5.82;5.05;;;10.50;68.40;;;;;;5039427;28;20063;-78
2024/02/28 05:13:35;;;;;;;7.88;4.85;;;10.50;68.40;;;;;;5028714;28;20102;-78
2024/02/28 05:16:21;;;;;;;7.65;4.70;;;10.40;68.20;;;;;;5036233;28;20611;-78
2024/02/28 05:19:05;;;;;;;6.57;5.07;;;10.40;68.30;;;;;;5040176;28;20155;-78
2024/02/28 05:21:50;;;;;;;7.55;5.18;;;10.40;68.30;;;;;;5031745;28;20176;-78
2024/02/28 05:24:35;;;;;;;8.55;5.15;;;10.40;68.30;;;;;;5031833;28;20067;-78
2024/02/28 05:27:19;;;;;;;7.40;4.93;;;10.40;68.30;;;;;;5040677;28;20102;-79
2024/02/28 05:30:05;;;;;;;6.22;4.40;;;10.40;68.30;;;;;;5039436;28;20056;-79
2024/02/28 05:32:50;;;;;;;9.98;5.53;;;10.40;68.90;;;;;;5034696;28;20072;-79
2024/02/28 05:35:35;;;;;;;7.07;4.82;;;10.40;68.30;;;;;;5040417;28;20063;-78
2024/02/28 05:38:19;;;;;;;7.43;4.47;;;10.40;68.30;;;;;;5037971;28;20091;-78
2024/02/28 05:41:04;;;;;;;9.60;5.20;;;10.40;68.30;;;;;;5038117;28;20040;-79
2024/02/28 05:43:49;;;;;;;9.57;5.15;;;10.40;68.30;;;;;;5031224;28;20091;-78
2024/02/28 05:46:34;;;;;;;8.85;4.95;;;10.40;68.30;;;;;;5039631;28;20047;-78
2024/02/28 05:49:19;;;;;;;6.40;4.13;;;10.50;68.50;;;;;;5034457;28;20056;-78
2024/02/28 05:52:04;;;;;;;6.45;4.90;;;10.40;68.30;;;;;;5036915;28;20076;-79
2024/02/28 05:54:49;;;;;;;7.47;5.05;;;10.40;68.40;;;;;;5037990;28;20103;-78
2024/02/28 05:57:34;;;;;;;7.05;4.30;;;10.40;68.40;;;;;;5043748;28;20151;-78
2024/02/28 06:00:19;;;;;;;7.10;5.03;;;10.40;68.40;;;;;;5029175;28;20604;-78
2024/02/28 06:03:03;;;;;;;6.05;4.60;;;10.40;68.40;;;;;;5042302;28;20521;-78
2024/02/28 06:05:48;;;;;;;7.22;5.00;;;10.40;68.40;;;;;;5036891;28;20067;-78
2024/02/28 06:08:38;;;;;;;8.20;4.43;;;10.40;68.40;;;;;;5039532;28;20091;-77
2024/02/28 06:11:22;;;;;;;8.65;4.82;;;10.40;68.40;;;;;;5033618;28;20088;-78
2024/02/28 06:14:07;;;;;;;7.22;4.05;;;10.40;68.40;;;;;;5031624;28;20036;-78
2024/02/28 06:16:51;;;;;;;6.10;4.35;;;10.40;68.40;;;;;;5040123;28;20103;-78
2024/02/28 06:19:37;;;;;;;10.50;4.70;;;10.40;68.40;;;;;;5034970;28;20048;-78
2024/02/28 06:22:21;;;;;;;5.50;3.85;;;10.40;68.40;;;;;;5039400;28;20696;-77
2024/02/28 06:25:13;;;;;;;8.57;4.35;;;10.40;68.40;;;;;;5038032;28;20595;-77
2024/02/28 06:28:02;;;;;;;6.13;4.25;;;10.40;68.40;;;;;;5036437;28;20102;-78
2024/02/28 06:30:46;;;;;;;7.13;4.70;;;10.40;68.40;;;;;;5036398;28;20039;-82
2024/02/28 06:33:31;;;;;;;6.50;4.20;;;10.40;68.40;;;;;;5022493;28;20107;-78
2024/02/28 06:36:15;;;;;;;7.05;4.95;;;10.40;68.40;;;;;;5016846;28;20043;-80
2024/02/28 06:39:00;;;;;;;8.82;4.63;;;10.40;68.40;;;;;;5043148;28;20515;-78
2024/02/28 06:41:45;;;;;;;6.70;4.03;;;10.30;68.30;;;;;;5038384;28;20091;-79
2024/02/28 06:44:30;;;;;;;8.35;4.43;;;10.30;68.30;;;;;;5024834;28;20097;-81
2024/02/28 06:47:16;;;;;;;6.53;4.10;;;10.30;68.30;;;;;;5041250;28;20107;-80
2024/02/28 06:50:00;;;;;;;5.70;3.88;;;10.40;68.50;;;;;;5039520;28;20495;-78
2024/02/28 06:52:45;;;;;;;6.97;3.65;;;10.40;68.50;;;;;;5031610;28;20051;-80
2024/02/28 06:55:29;;;;;;;6.60;3.80;;;10.30;68.40;;;;;;5037611;28;20142;-77
2024/02/28 06:58:15;;;;;;;6.30;3.13;;;10.30;68.40;;;;;;5036292;28;20103;-78
2024/02/28 07:00:59;;;;;;;10.73;4.78;;;10.30;68.50;;;;;;5042559;28;20052;-79
2024/02/28 07:03:44;;;;;;;6.25;3.75;;;10.40;68.80;;;;;;5027391;28;20512;-77
2024/02/28 07:06:28;;;;;;;7.22;3.33;;;10.40;68.90;;;;;;5035216;28;20040;-78
2024/02/28 07:09:15;;;;;;;6.97;3.92;;;10.40;69.10;;;;;;5042211;28;20068;-77
2024/02/28 07:12:00;;;;;;;8.23;3.75;;;10.50;69.40;;;;;;5032984;28;20607;-77
2024/02/28 07:14:45;;;;;;;9.85;4.15;;;10.50;69.40;;;;;;5039378;28;20167;-77
2024/02/28 07:17:30;;;;;;;6.75;3.60;;;10.50;69.40;;;;;;5038985;28;20039;-78
2024/02/28 07:20:15;;;;;;;7.38;3.90;;;10.50;69.40;;;;;;5034182;28;20052;-77
2024/02/28 07:22:59;;;;;;;7.70;3.92;;;10.50;69.40;;;;;;5033729;28;20375;-78
2024/02/28 07:25:44;;;;;;;8.93;4.88;;;10.40;69.30;;;;;;5040148;28;20048;-78
2024/02/28 07:28:28;;;;;;;7.57;3.95;;;10.40;69.30;;;;;;5037580;28;20059;-79
2024/02/28 07:31:16;;;;;;;29.58;9.05;;;10.50;69.50;;;;;;5032366;28;20053;-78
2024/02/28 07:34:01;;;;;;;34.65;9.98;;;10.40;69.40;;;;;;5038361;28;20553;-77
2024/02/28 07:36:46;;;;;;;23.10;7.10;;;10.40;69.70;;;;;;5046494;28;20251;-77
2024/02/28 07:39:31;;;;;;;25.58;7.75;;;10.50;70.00;;;;;;5036234;28;20404;-77
2024/02/28 07:42:15;;;;;;;19.98;7.40;;;10.50;70.10;;;;;;5038227;28;20098;-78
2024/02/28 07:45:00;;;;;;;24.50;8.00;;;10.50;70.10;;;;;;5037655;28;20510;-77
2024/02/28 07:47:47;;;;;;;23.05;7.95;;;10.60;70.30;;;;;;5037545;28;20519;-79
2024/02/28 07:50:31;;;;;;;21.13;7.47;;;10.60;70.30;;;;;;5025423;28;20068;-78
2024/02/28 07:53:17;;;;;;;17.38;7.65;;;10.60;70.30;;;;;;5041375;28;20043;-78
2024/02/28 07:56:02;;;;;;;13.95;5.97;;;10.60;70.20;;;;;;5036981;28;20109;-78
2024/02/28 07:58:47;;;;;;;14.95;7.03;;;10.60;70.20;;;;;;5027027;28;20044;-78
2024/02/28 08:01:32;;;;;;;14.48;7.03;;;10.60;70.20;;;;;;5036783;28;20193;-79
2024/02/28 08:04:16;;;;;;;14.60;6.00;;;10.60;70.10;;;;;;5040193;28;20045;-80
2024/02/28 08:07:01;;;;;;;13.07;6.18;;;10.60;70.10;;;;;;5036591;28;20159;-78
2024/02/28 08:09:46;;;;;;;12.35;5.75;;;10.50;69.90;;;;;;5040023;28;20136;-78
2024/02/28 08:12:30;;;;;;;14.93;5.75;;;10.60;70.10;;;;;;5042843;28;20849;-78
2024/02/28 08:15:16;;;;;;;11.02;5.57;;;10.60;70.10;;;;;;5031336;28;20041;-78
2024/02/28 08:18:00;;;;;;;10.32;5.55;;;10.60;70.00;;;;;;5034301;28;20044;-79
2024/02/28 08:20:45;;;;;;;12.38;5.40;;;10.50;69.80;;;;;;5037880;28;20456;-78
2024/02/28 08:23:31;;;;;;;9.80;6.22;;;10.60;69.90;;;;;;5031609;28;20578;-78
2024/02/28 08:26:16;;;;;;;13.90;6.53;;;10.60;69.90;;;;;;5024844;28;20060;-77
2024/02/28 08:29:00;;;;;;;9.45;5.97;;;10.60;69.90;;;;;;5030632;28;20115;-78
2024/02/28 08:31:46;;;;;;;12.02;5.90;;;10.60;69.80;;;;;;5022982;28;20154;-79
2024/02/28 08:34:30;;;;;;;11.27;5.07;;;10.60;69.80;;;;;;5033091;28;20501;-78
2024/02/28 08:37:14;;;;;;;13.38;5.82;;;10.60;69.70;;;;;;5030355;28;20135;-78
2024/02/28 08:39:59;;;;;;;11.30;5.47;;;10.60;69.70;;;;;;5040718;28;20044;-78
2024/02/28 08:42:43;;;;;;;10.43;5.28;;;10.60;69.60;;;;;;5040525;28;20075;-78
2024/02/28 08:45:28;;;;;;;10.77;6.35;;;10.70;69.70;;;;;;5032636;28;20048;-78
2024/02/28 08:48:13;;;;;;;11.32;5.57;;;10.70;69.70;;;;;;5033043;28;20159;-78
2024/02/28 08:50:57;;;;;;;9.10;5.10;;;10.70;69.60;;;;;;5017046;28;20079;-78
2024/02/28 08:53:41;;;;;;;9.63;5.45;;;10.70;69.60;;;;;;5040455;28;20054;-78
2024/02/28 08:56:26;;;;;;;9.45;5.03;;;10.70;69.50;;;;;;5040350;28;20103;-78
2024/02/28 08:59:10;;;;;;;12.55;4.85;;;10.70;69.50;;;;;;5038661;28;20503;-78
2024/02/28 09:01:54;;;;;;;11.65;5.53;;;10.70;69.40;;;;;;5031303;28;20045;-78
2024/02/28 09:04:39;;;;;;;10.73;4.75;;;10.70;69.40;;;;;;5026309;28;20040;-78
2024/02/28 09:07:24;;;;;;;9.63;5.50;;;10.80;69.60;;;;;;5036709;28;20052;-78
2024/02/28 09:10:08;;;;;;;12.73;5.78;;;10.80;69.50;;;;;;5039141;28;20442;-78
2024/02/28 09:12:53;;;;;;;10.52;5.40;;;10.80;69.50;;;;;;5024916;28;20095;-78
2024/02/28 09:15:38;;;;;;;10.43;4.82;;;10.80;69.50;;;;;;5043313;28;20538;-78
2024/02/28 09:18:23;;;;;;;8.75;4.65;;;10.90;69.60;;;;;;5023527;28;20440;-78
2024/02/28 09:21:11;;;;;;;12.23;5.18;;;10.90;69.40;;;;;;5025160;28;20056;-79
2024/02/28 09:23:55;;;;;;;10.23;5.07;;;10.90;69.40;;;;;;5014350;28;20040;-78
2024/02/28 09:26:40;;;;;;;11.38;5.07;;;11.00;69.50;;;;;;5028976;28;20044;-78
2024/02/28 09:29:25;;;;;;;7.38;4.75;;;11.00;69.40;;;;;;5033706;28;20110;-79
2024/02/28 09:32:10;;;;;;;12.02;4.70;;;11.10;69.40;;;;;;5035251;28;20600;-79
2024/02/28 09:34:55;;;;;;;8.43;4.80;;;11.10;69.40;;;;;;5023454;28;20093;-79
2024/02/28 09:37:40;;;;;;;9.98;4.63;;;11.20;69.50;;;;;;5019773;28;20037;-79
2024/02/28 09:40:24;;;;;;;6.28;3.95;;;11.20;69.40;;;;;;5038488;28;20091;-79
2024/02/28 09:43:19;;;;;;;7.70;4.53;;;11.30;69.50;;;;;;5038745;28;20048;-79
2024/02/28 09:46:05;;;;;;;7.65;4.45;;;11.30;69.40;;;;;;5025561;28;20090;-79
2024/02/28 09:48:50;;;;;;;8.30;4.28;;;11.40;69.40;;;;;;5037718;28;20055;-78
2024/02/28 09:51:35;;;;;;;8.35;4.50;;;11.40;69.40;;;;;;5033698;28;20114;-78
2024/02/28 09:54:20;;;;;;;9.23;4.78;;;11.50;69.50;;;;;;5034946;28;20689;-78
2024/02/28 09:57:06;;;;;;;7.85;4.28;;;11.50;69.40;;;;;;5026993;28;20036;-80
2024/02/28 09:59:50;;;;;;;7.07;3.60;;;11.60;69.50;;;;;;5016616;28;20310;-79
2024/02/28 10:02:35;;;;;;;6.47;3.63;;;11.60;69.40;;;;;;5024098;28;20222;-79
2024/02/28 10:05:19;;;;;;;8.18;3.75;;;11.60;69.80;;;;;;5032362;28;20117;-79
2024/02/28 10:08:05;;;;;;;8.10;3.70;;;11.70;69.30;;;;;;5022427;28;20060;-79
2024/02/28 10:10:54;;;;;;;8.65;3.70;;;11.80;69.40;;;;;;5027973;28;20383;-79
2024/02/28 10:13:38;;;;;;;8.05;4.13;;;11.80;69.40;;;;;;5014681;28;20044;-79
2024/02/28 10:16:24;;;;;;;6.80;3.47;;;11.80;69.30;;;;;;5035184;28;20088;-80
2024/02/28 10:19:09;;;;;;;6.45;3.63;;;11.90;69.40;;;;;;5030506;28;20141;-79
2024/02/28 10:21:54;;;;;;;7.60;3.40;;;11.90;69.40;;;;;;5032152;28;20103;-79
2024/02/28 10:24:38;;;;;;;6.90;3.10;;;12.00;69.50;;;;;;5031660;28;20668;-79
2024/02/28 10:27:23;;;;;;;7.43;3.22;;;12.00;69.40;;;;;;5028191;28;20375;-80
2024/02/28 10:30:08;;;;;;;6.00;3.53;;;12.10;69.40;;;;;;5031494;28;20161;-80
2024/02/28 10:32:52;;;;;;;8.73;2.90;;;12.10;69.30;;;;;;5021695;28;20064;-78
2024/02/28 10:35:38;;;;;;;5.88;2.72;;;12.20;69.40;;;;;;5035296;28;20119;-78
2024/02/28 10:38:24;;;;;;;7.25;3.38;;;12.20;69.20;;;;;;5032278;28;20031;-78
2024/02/28 10:41:09;;;;;;;8.90;3.03;;;12.20;69.20;;;;;;5041103;28;20056;-78
2024/02/28 10:43:55;;;;;;;6.13;2.47;;;12.30;69.20;;;;;;5044447;28;20036;-78
2024/02/28 10:46:39;;;;;;;5.55;2.78;;;12.30;69.20;;;;;;5044101;28;20149;-77
2024/02/28 10:49:24;;;;;;;3.78;2.47;;;12.30;69.10;;;;;;5041418;28;20449;-77
2024/02/28 10:52:10;;;;;;;6.55;2.30;;;12.40;69.20;;;;;;5040231;28;20079;-78
2024/02/28 10:54:58;;;;;;;6.82;2.58;;;12.40;69.10;;;;;;5039638;28;20404;-80
2024/02/28 10:57:46;;;;;;;7.47;2.88;;;12.50;69.20;;;;;;5038454;28;20044;-79
2024/02/28 11:00:32;;;;;;;5.20;2.67;;;12.50;69.20;;;;;;5041205;28;20554;-79
2024/02/28 11:03:18;;;;;;;6.43;2.97;;;12.60;69.20;;;;;;5043399;28;20068;-79
2024/02/28 11:06:03;;;;;;;6.93;2.60;;;12.60;69.20;;;;;;5043216;28;20103;-80
2024/02/28 11:08:56;;;;;;;6.70;2.50;;;12.70;69.20;;;;;;5047717;28;20693;-80
2024/02/28 11:11:40;;;;;;;6.47;2.30;;;12.70;69.10;;;;;;5043908;28;20070;-79
2024/02/28 11:14:26;;;;;;;5.43;2.47;;;12.80;69.10;;;;;;5042957;28;20456;-78
2024/02/28 11:17:11;;;;;;;7.38;2.10;;;12.90;69.10;;;;;;5050150;28;20098;-78
2024/02/28 11:19:55;;;;;;;5.07;2.35;;;13.00;69.70;;;;;;5043344;28;20032;-78
2024/02/28 11:22:40;;;;;;;6.72;2.20;;;13.00;69.00;;;;;;5042506;28;20084;-78
2024/02/28 11:25:25;;;;;;;4.25;1.85;;;13.10;69.00;;;;;;5039917;28;20483;-78
2024/02/28 11:28:09;;;;;;;4.13;1.70;;;13.20;69.10;;;;;;5038735;28;20122;-78
2024/02/28 11:30:54;;;;;;;4.50;2.20;;;13.20;68.90;;;;;;5042017;28;20036;-78
2024/02/28 11:33:39;;;;;;;4.18;2.03;;;13.30;69.00;;;;;;5041828;28;20121;-78
2024/02/28 11:36:24;;;;;;;4.60;2.10;;;13.40;69.00;;;;;;5039589;28;20043;-77
2024/02/28 11:39:09;;;;;;;4.90;2.33;;;13.50;69.00;;;;;;5037260;28;20044;-77
2024/02/28 11:41:53;;;;;;;4.93;1.92;;;13.60;69.00;;;;;;5044355;28;20118;-78
2024/02/28 11:44:38;;;;;;;4.97;2.10;;;13.60;68.80;;;;;;5048470;28;20047;-78
2024/02/28 11:47:23;;;;;;;4.70;1.85;;;13.70;68.90;;;;;;5036601;28;20044;-78
2024/02/28 11:50:07;;;;;;;4.57;1.80;;;13.80;68.90;;;;;;5032710;28;20545;-78
2024/02/28 11:52:52;;;;;;;4.10;1.50;;;13.80;68.80;;;;;;5030536;28;20036;-79
2024/02/28 11:55:38;;;;;;;6.80;2.47;;;13.90;68.90;;;;;;5015125;28;20088;-78
2024/02/28 11:58:22;;;;;;;2.25;1.42;;;13.90;68.80;;;;;;5027867;28;20582;-79
2024/02/28 12:01:07;;;;;;;3.50;1.73;;;13.90;68.60;;;;;;5031510;28;20086;-79
2024/02/28 12:03:52;;;;;;;2.65;1.60;;;14.00;68.70;;;;;;5016646;28;20040;-80
2024/02/28 12:06:37;;;;;;;5.45;1.80;;;13.90;68.50;;;;;;5034495;28;20115;-79
2024/02/28 12:09:22;;;;;;;4.50;2.03;;;13.90;68.50;;;;;;5033645;28;20060;-81
2024/02/28 12:12:08;;;;;;;3.42;1.40;;;13.90;68.60;;;;;;5034668;28;20472;-81
2024/02/28 12:14:52;;;;;;;2.53;1.30;;;13.90;68.70;;;;;;5024550;28;20451;-81
2024/02/28 12:17:36;;;;;;;3.25;1.58;;;13.90;68.70;;;;;;5025664;28;20052;-81
2024/02/28 12:20:21;;;;;;;5.25;2.05;;;13.80;68.50;;;;;;5030251;28;20570;-80
2024/02/28 12:23:08;;;;;;;4.85;1.55;;;13.80;68.50;;;;;;5028400;28;20075;-80
2024/02/28 12:25:53;;;;;;;3.50;1.30;;;13.90;68.70;;;;;;5035702;28;20044;-81
2024/02/28 12:28:39;;;;;;;4.18;1.70;;;13.80;68.50;;;;;;5031402;28;20064;-81
2024/02/28 12:31:24;;;;;;;2.47;1.40;;;13.80;68.50;;;;;;5022560;28;20182;-82
2024/02/28 12:34:08;;;;;;;4.53;1.27;;;13.80;68.40;;;;;;5032780;28;20095;-81
2024/02/28 12:36:54;;;;;;;4.63;2.08;;;13.80;68.50;;;;;;5031620;28;20076;-81
2024/02/28 12:39:38;;;;;;;4.13;1.45;;;13.80;68.40;;;;;;5034596;28;20104;-81
2024/02/28 12:42:24;;;;;;;2.05;0.90;;;13.80;68.50;;;;;;5030959;28;20041;-81
2024/02/28 12:45:08;;;;;;;3.30;1.95;;;13.80;68.50;;;;;;5031012;28;20404;-80
2024/02/28 12:47:56;;;;;;;3.10;1.77;;;13.70;68.40;;;;;;5027955;28;20408;-79
2024/02/28 12:50:40;;;;;;;2.88;1.35;;;13.70;68.50;;;;;;5024059;28;20590;-79
2024/02/28 12:53:26;;;;;;;2.17;1.55;;;13.70;68.60;;;;;;5040135;28;20036;-80
2024/02/28 12:56:10;;;;;;;4.45;1.20;;;13.70;68.60;;;;;;5037056;28;20151;-80
2024/02/28 12:58:55;;;;;;;3.72;1.67;;;13.70;68.60;;;;;;5031096;28;20044;-79
2024/02/28 13:01:39;;;;;;;2.47;1.00;;;13.70;68.60;;;;;;5038265;28;20302;-78
2024/02/28 13:04:26;;;;;;;1.92;1.17;;;13.70;68.60;;;;;;5035403;28;20102;-79
2024/02/28 13:07:11;;;;;;;2.45;1.27;;;13.70;68.50;;;;;;5027494;28;20566;-79
2024/02/28 13:09:56;;;;;;;2.67;1.00;;;13.70;68.40;;;;;;5021609;28;20044;-79
2024/02/28 13:12:40;;;;;;;1.98;1.20;;;13.80;68.50;;;;;;5034423;28;20083;-79
2024/02/28 13:15:26;;;;;;;3.25;1.50;;;13.80;68.50;;;;;;5034471;28;20422;-79
2024/02/28 13:18:10;;;;;;;2.05;1.10;;;13.80;68.50;;;;;;5024550;28;20084;-81
2024/02/28 13:20:55;;;;;;;3.97;1.40;;;13.80;68.40;;;;;;5025808;28;20533;-79
2024/02/28 13:23:39;;;;;;;1.80;1.25;;;13.80;68.40;;;;;;5027903;28;20087;-80
2024/02/28 13:26:24;;;;;;;2.80;1.30;;;13.80;68.30;;;;;;5027792;28;20044;-80
2024/02/28 13:29:09;;;;;;;1.65;0.85;;;13.80;68.30;;;;;;5013701;28;20103;-79
2024/02/28 13:31:54;;;;;;;1.42;1.10;;;13.80;68.40;;;;;;5037115;28;20130;-79
2024/02/28 13:34:39;;;;;;;3.58;1.25;;;13.80;68.40;;;;;;5035175;28;20631;-79
2024/02/28 13:37:24;;;;;;;1.77;1.27;;;13.70;68.30;;;;;;5032150;28;20242;-79
2024/02/28 13:40:10;;;;;;;1.73;1.08;;;13.70;68.30;;;;;;5025181;28;20531;-80
2024/02/28 13:42:54;;;;;;;1.65;0.98;;;13.70;68.40;;;;;;5030297;28;20496;-81
2024/02/28 13:45:42;;;;;;;2.22;1.02;;;13.70;68.40;;;;;;5030618;28;20083;-81
2024/02/28 13:48:30;;;;;;;2.03;0.88;;;13.70;68.60;;;;;;5018038;28;20094;-81
2024/02/28 13:51:15;;;;;;;1.55;0.95;;;13.70;68.60;;;;;;5017405;28;20099;-81
2024/02/28 13:54:00;;;;;;;3.03;1.00;;;13.70;68.60;;;;;;5044062;28;20564;-81
2024/02/28 13:56:44;;;;;;;1.33;0.73;;;13.70;68.60;;;;;;5043168;28;20047;-79
2024/02/28 13:59:29;;;;;;;1.75;0.90;;;13.70;68.60;;;;;;5040857;28;20047;-78
2024/02/28 14:02:15;;;;;;;2.38;0.70;;;13.80;68.80;;;;;;5040499;28;20161;-78
2024/02/28 14:05:00;;;;;;;1.48;0.82;;;13.80;68.80;;;;;;5028609;28;20107;-78
2024/02/28 14:07:45;;;;;;;1.98;0.90;;;13.90;68.90;;;;;;5045933;28;20099;-78
2024/02/28 14:10:30;;;;;;;2.13;1.05;;;13.90;68.90;;;;;;5041674;28;20047;-78
2024/02/28 14:13:17;;;;;;;1.27;0.80;;;13.90;69.00;;;;;;5039859;28;20035;-78
2024/02/28 14:16:02;;;;;;;1.33;0.85;;;13.90;68.90;;;;;;5030638;28;20056;-79